sensor_id;sensor_type;location;lat;lon;timestamp;P1;durP1;ratioP1;P2;durP2;ratioP2
56712;SDS011;42589;45.536;9.032;2022-09-12T00:02:54;6.65;;;3.83;;
56712;SDS011;42589;45.536;9.032;2022-09-12T00:05:55;7.75;;;3.40;;
56712;SDS011;42589;45.536;9.032;2022-09-12T00:09:07;6.47;;;3.33;;
56712;SDS011;42589;45.536;9.032;2022-09-12T00:12:10;6.63;;;3.15;;
56712;SDS011;42589;45.536;9.032;2022-09-12T00:15:11;5.80;;;2.80;;
56712;SDS011;42589;45.536;9.032;2022-09-12T00:18:13;6.88;;;3.03;;
56712;SDS011;42589;45.536;9.032;2022-09-12T00:21:16;3.13;;;2.30;;
56712;SDS011;42589;45.536;9.032;2022-09-12T00:24:18;3.92;;;2.33;;
56712;SDS011;42589;45.536;9.032;2022-09-12T00:27:18;3.88;;;2.70;;
56712;SDS011;42589;45.536;9.032;2022-09-12T00:30:19;4.53;;;2.50;;
56712;SDS011;42589;45.536;9.032;2022-09-12T00:33:19;5.28;;;2.30;;
56712;SDS011;42589;45.536;9.032;2022-09-12T00:36:21;4.38;;;2.55;;
56712;SDS011;42589;45.536;9.032;2022-09-12T00:39:25;5.10;;;2.40;;
56712;SDS011;42589;45.536;9.032;2022-09-12T00:42:26;4.78;;;2.22;;
56712;SDS011;42589;45.536;9.032;2022-09-12T00:45:27;3.08;;;2.28;;
56712;SDS011;42589;45.536;9.032;2022-09-12T00:48:32;3.45;;;2.15;;
56712;SDS011;42589;45.536;9.032;2022-09-12T00:51:40;2.78;;;1.90;;
56712;SDS011;42589;45.536;9.032;2022-09-12T00:54:48;3.85;;;2.20;;
56712;SDS011;42589;45.536;9.032;2022-09-12T01:00:52;3.38;;;2.08;;
56712;SDS011;42589;45.536;9.032;2022-09-12T01:03:53;4.40;;;2.42;;
56712;SDS011;42589;45.536;9.032;2022-09-12T01:06:54;4.90;;;2.75;;
56712;SDS011;42589;45.536;9.032;2022-09-12T01:09:57;6.10;;;2.70;;
56712;SDS011;42589;45.536;9.032;2022-09-12T01:12:58;4.75;;;2.97;;
56712;SDS011;42589;45.536;9.032;2022-09-12T01:16:01;3.22;;;2.92;;
56712;SDS011;42589;45.536;9.032;2022-09-12T01:29:03;3.45;;;2.70;;
56712;SDS011;42589;45.536;9.032;2022-09-12T01:45:42;3.03;;;2.47;;
56712;SDS011;42589;45.536;9.032;2022-09-12T01:48:50;2.92;;;2.40;;
56712;SDS011;42589;45.536;9.032;2022-09-12T01:52:09;4.95;;;2.50;;
56712;SDS011;42589;45.536;9.032;2022-09-12T01:55:33;2.58;;;2.30;;
56712;SDS011;42589;45.536;9.032;2022-09-12T01:58:44;2.72;;;1.98;;
56712;SDS011;42589;45.536;9.032;2022-09-12T02:01:58;2.60;;;2.03;;
56712;SDS011;42589;45.536;9.032;2022-09-12T02:05:28;2.65;;;2.45;;
56712;SDS011;42589;45.536;9.032;2022-09-12T02:08:32;4.00;;;2.70;;
56712;SDS011;42589;45.536;9.032;2022-09-12T02:11:42;3.05;;;2.75;;
56712;SDS011;42589;45.536;9.032;2022-09-12T02:14:45;4.93;;;2.30;;
56712;SDS011;42589;45.536;9.032;2022-09-12T02:17:50;3.65;;;2.53;;
56712;SDS011;42589;45.536;9.032;2022-09-12T02:20:55;3.45;;;2.53;;
56712;SDS011;42589;45.536;9.032;2022-09-12T02:23:57;5.13;;;2.40;;
56712;SDS011;42589;45.536;9.032;2022-09-12T02:27:04;3.45;;;2.60;;
56712;SDS011;42589;45.536;9.032;2022-09-12T02:30:09;3.70;;;2.17;;
56712;SDS011;42589;45.536;9.032;2022-09-12T02:33:14;3.20;;;2.42;;
56712;SDS011;42589;45.536;9.032;2022-09-12T02:39:37;6.03;;;2.58;;
56712;SDS011;42589;45.536;9.032;2022-09-12T02:42:40;5.13;;;2.42;;
56712;SDS011;42589;45.536;9.032;2022-09-12T02:45:44;5.32;;;2.50;;
56712;SDS011;42589;45.536;9.032;2022-09-12T02:48:45;3.30;;;2.20;;
56712;SDS011;42589;45.536;9.032;2022-09-12T02:51:45;3.25;;;2.00;;
56712;SDS011;42589;45.536;9.032;2022-09-12T02:54:47;3.88;;;2.33;;
56712;SDS011;42589;45.536;9.032;2022-09-12T02:57:49;3.30;;;2.03;;
56712;SDS011;42589;45.536;9.032;2022-09-12T03:11:24;2.90;;;1.77;;
56712;SDS011;42589;45.536;9.032;2022-09-12T03:24:23;2.55;;;1.90;;
56712;SDS011;42589;45.536;9.032;2022-09-12T03:27:45;2.40;;;1.90;;
56712;SDS011;42589;45.536;9.032;2022-09-12T03:31:10;3.05;;;1.92;;
56712;SDS011;42589;45.536;9.032;2022-09-12T03:34:13;2.67;;;2.08;;
56712;SDS011;42589;45.536;9.032;2022-09-12T03:37:15;4.93;;;2.13;;
56712;SDS011;42589;45.536;9.032;2022-09-12T03:40:16;2.75;;;1.83;;
56712;SDS011;42589;45.536;9.032;2022-09-12T03:43:17;4.70;;;1.90;;
56712;SDS011;42589;45.536;9.032;2022-09-12T03:46:18;2.25;;;1.95;;
56712;SDS011;42589;45.536;9.032;2022-09-12T03:49:19;3.13;;;2.08;;
56712;SDS011;42589;45.536;9.032;2022-09-12T03:52:20;2.63;;;1.90;;
56712;SDS011;42589;45.536;9.032;2022-09-12T03:55:21;2.70;;;1.90;;
56712;SDS011;42589;45.536;9.032;2022-09-12T03:58:22;2.45;;;1.77;;
56712;SDS011;42589;45.536;9.032;2022-09-12T04:01:23;3.10;;;2.03;;
56712;SDS011;42589;45.536;9.032;2022-09-12T04:04:24;3.88;;;2.03;;
56712;SDS011;42589;45.536;9.032;2022-09-12T04:07:26;3.42;;;1.77;;
56712;SDS011;42589;45.536;9.032;2022-09-12T04:10:27;5.63;;;2.20;;
56712;SDS011;42589;45.536;9.032;2022-09-12T04:13:28;2.90;;;2.33;;
56712;SDS011;42589;45.536;9.032;2022-09-12T04:16:30;2.55;;;1.70;;
56712;SDS011;42589;45.536;9.032;2022-09-12T04:19:31;4.60;;;2.08;;
56712;SDS011;42589;45.536;9.032;2022-09-12T04:22:32;2.63;;;1.67;;
56712;SDS011;42589;45.536;9.032;2022-09-12T04:25:32;3.25;;;2.30;;
56712;SDS011;42589;45.536;9.032;2022-09-12T04:28:34;2.50;;;2.25;;
56712;SDS011;42589;45.536;9.032;2022-09-12T04:31:35;2.55;;;2.00;;
56712;SDS011;42589;45.536;9.032;2022-09-12T04:34:36;3.25;;;1.88;;
56712;SDS011;42589;45.536;9.032;2022-09-12T04:37:37;2.92;;;1.90;;
56712;SDS011;42589;45.536;9.032;2022-09-12T04:40:38;7.65;;;2.15;;
56712;SDS011;42589;45.536;9.032;2022-09-12T04:43:39;2.70;;;2.20;;
56712;SDS011;42589;45.536;9.032;2022-09-12T04:46:42;7.97;;;2.40;;
56712;SDS011;42589;45.536;9.032;2022-09-12T04:49:43;3.90;;;2.15;;
56712;SDS011;42589;45.536;9.032;2022-09-12T04:52:49;7.40;;;2.65;;
56712;SDS011;42589;45.536;9.032;2022-09-12T04:55:50;6.25;;;2.13;;
56712;SDS011;42589;45.536;9.032;2022-09-12T04:58:51;6.60;;;2.63;;
56712;SDS011;42589;45.536;9.032;2022-09-12T05:01:52;4.80;;;2.70;;
56712;SDS011;42589;45.536;9.032;2022-09-12T05:04:53;3.30;;;2.10;;
56712;SDS011;42589;45.536;9.032;2022-09-12T05:07:54;6.05;;;2.40;;
56712;SDS011;42589;45.536;9.032;2022-09-12T05:10:55;5.72;;;2.10;;
56712;SDS011;42589;45.536;9.032;2022-09-12T05:13:56;8.95;;;2.75;;
56712;SDS011;42589;45.536;9.032;2022-09-12T05:16:56;4.47;;;2.30;;
56712;SDS011;42589;45.536;9.032;2022-09-12T05:19:59;6.18;;;2.38;;
56712;SDS011;42589;45.536;9.032;2022-09-12T05:23:00;6.07;;;2.30;;
56712;SDS011;42589;45.536;9.032;2022-09-12T05:26:02;6.60;;;3.03;;
56712;SDS011;42589;45.536;9.032;2022-09-12T05:29:04;9.13;;;2.72;;
56712;SDS011;42589;45.536;9.032;2022-09-12T05:32:06;5.03;;;2.10;;
56712;SDS011;42589;45.536;9.032;2022-09-12T05:35:06;5.93;;;2.78;;
56712;SDS011;42589;45.536;9.032;2022-09-12T05:38:07;3.55;;;2.03;;
56712;SDS011;42589;45.536;9.032;2022-09-12T05:41:10;4.75;;;2.10;;
56712;SDS011;42589;45.536;9.032;2022-09-12T05:44:18;7.13;;;2.25;;
56712;SDS011;42589;45.536;9.032;2022-09-12T05:47:20;3.28;;;2.13;;
56712;SDS011;42589;45.536;9.032;2022-09-12T05:50:20;5.22;;;1.80;;
56712;SDS011;42589;45.536;9.032;2022-09-12T05:53:21;5.97;;;2.35;;
56712;SDS011;42589;45.536;9.032;2022-09-12T05:56:28;5.50;;;2.10;;
56712;SDS011;42589;45.536;9.032;2022-09-12T05:59:33;4.90;;;2.20;;
56712;SDS011;42589;45.536;9.032;2022-09-12T06:02:33;4.10;;;1.92;;
56712;SDS011;42589;45.536;9.032;2022-09-12T06:05:35;7.30;;;2.10;;
56712;SDS011;42589;45.536;9.032;2022-09-12T06:08:36;9.07;;;1.95;;
56712;SDS011;42589;45.536;9.032;2022-09-12T06:11:36;3.47;;;2.38;;
56712;SDS011;42589;45.536;9.032;2022-09-12T06:14:40;5.93;;;2.60;;
56712;SDS011;42589;45.536;9.032;2022-09-12T06:17:41;10.45;;;2.95;;
56712;SDS011;42589;45.536;9.032;2022-09-12T06:20:42;7.28;;;3.28;;
56712;SDS011;42589;45.536;9.032;2022-09-12T06:23:42;6.78;;;3.13;;
56712;SDS011;42589;45.536;9.032;2022-09-12T06:26:45;9.13;;;3.15;;
56712;SDS011;42589;45.536;9.032;2022-09-12T06:29:46;5.55;;;3.17;;
56712;SDS011;42589;45.536;9.032;2022-09-12T06:32:48;7.68;;;3.88;;
56712;SDS011;42589;45.536;9.032;2022-09-12T06:35:49;10.65;;;3.40;;
56712;SDS011;42589;45.536;9.032;2022-09-12T06:38:53;6.97;;;2.90;;
56712;SDS011;42589;45.536;9.032;2022-09-12T06:41:56;5.35;;;3.25;;
56712;SDS011;42589;45.536;9.032;2022-09-12T06:44:56;5.20;;;2.70;;
56712;SDS011;42589;45.536;9.032;2022-09-12T06:47:58;8.43;;;3.15;;
56712;SDS011;42589;45.536;9.032;2022-09-12T06:51:06;8.52;;;3.15;;
56712;SDS011;42589;45.536;9.032;2022-09-12T06:54:13;5.88;;;3.05;;
56712;SDS011;42589;45.536;9.032;2022-09-12T06:57:15;3.35;;;2.50;;
56712;SDS011;42589;45.536;9.032;2022-09-12T07:00:16;6.05;;;2.63;;
56712;SDS011;42589;45.536;9.032;2022-09-12T07:03:17;10.07;;;2.65;;
56712;SDS011;42589;45.536;9.032;2022-09-12T07:06:19;9.88;;;2.90;;
56712;SDS011;42589;45.536;9.032;2022-09-12T07:09:23;4.00;;;2.50;;
56712;SDS011;42589;45.536;9.032;2022-09-12T07:12:26;6.05;;;2.40;;
56712;SDS011;42589;45.536;9.032;2022-09-12T07:18:30;7.13;;;2.33;;
56712;SDS011;42589;45.536;9.032;2022-09-12T07:21:32;2.85;;;2.25;;
56712;SDS011;42589;45.536;9.032;2022-09-12T07:24:38;6.28;;;2.45;;
56712;SDS011;42589;45.536;9.032;2022-09-12T07:27:40;3.85;;;2.30;;
56712;SDS011;42589;45.536;9.032;2022-09-12T07:30:40;6.57;;;2.35;;
56712;SDS011;42589;45.536;9.032;2022-09-12T07:33:41;4.03;;;2.50;;
56712;SDS011;42589;45.536;9.032;2022-09-12T07:36:42;6.18;;;2.13;;
56712;SDS011;42589;45.536;9.032;2022-09-12T07:39:44;6.03;;;2.60;;
56712;SDS011;42589;45.536;9.032;2022-09-12T07:42:45;4.57;;;2.22;;
56712;SDS011;42589;45.536;9.032;2022-09-12T07:45:46;3.67;;;2.20;;
56712;SDS011;42589;45.536;9.032;2022-09-12T07:48:57;5.68;;;2.20;;
56712;SDS011;42589;45.536;9.032;2022-09-12T07:51:59;7.50;;;2.88;;
56712;SDS011;42589;45.536;9.032;2022-09-12T07:55:00;6.43;;;3.05;;
56712;SDS011;42589;45.536;9.032;2022-09-12T07:58:01;10.90;;;3.63;;
56712;SDS011;42589;45.536;9.032;2022-09-12T08:04:07;7.93;;;4.30;;
56712;SDS011;42589;45.536;9.032;2022-09-12T08:07:08;8.95;;;3.00;;
56712;SDS011;42589;45.536;9.032;2022-09-12T08:10:10;8.07;;;4.53;;
56712;SDS011;42589;45.536;9.032;2022-09-12T08:13:10;8.38;;;4.28;;
56712;SDS011;42589;45.536;9.032;2022-09-12T08:16:21;8.30;;;3.65;;
56712;SDS011;42589;45.536;9.032;2022-09-12T08:19:25;4.95;;;3.15;;
56712;SDS011;42589;45.536;9.032;2022-09-12T08:22:28;6.45;;;3.28;;
56712;SDS011;42589;45.536;9.032;2022-09-12T08:28:32;9.45;;;4.32;;
56712;SDS011;42589;45.536;9.032;2022-09-12T08:31:34;6.10;;;4.28;;
56712;SDS011;42589;45.536;9.032;2022-09-12T08:34:35;9.50;;;4.32;;
56712;SDS011;42589;45.536;9.032;2022-09-12T08:37:36;6.68;;;3.55;;
56712;SDS011;42589;45.536;9.032;2022-09-12T08:40:43;5.45;;;2.85;;
56712;SDS011;42589;45.536;9.032;2022-09-12T08:50:20;7.20;;;2.88;;
56712;SDS011;42589;45.536;9.032;2022-09-12T08:53:22;4.53;;;2.38;;
56712;SDS011;42589;45.536;9.032;2022-09-12T08:56:27;4.55;;;2.42;;
56712;SDS011;42589;45.536;9.032;2022-09-12T08:59:36;5.75;;;2.00;;
56712;SDS011;42589;45.536;9.032;2022-09-12T09:05:49;5.70;;;2.70;;
56712;SDS011;42589;45.536;9.032;2022-09-12T09:09:38;5.15;;;2.10;;
56712;SDS011;42589;45.536;9.032;2022-09-12T09:15:44;7.10;;;2.72;;
56712;SDS011;42589;45.536;9.032;2022-09-12T09:19:03;5.68;;;2.40;;
56712;SDS011;42589;45.536;9.032;2022-09-12T09:22:13;3.47;;;2.22;;
56712;SDS011;42589;45.536;9.032;2022-09-12T09:25:20;4.95;;;2.95;;
56712;SDS011;42589;45.536;9.032;2022-09-12T09:28:26;6.00;;;2.88;;
56712;SDS011;42589;45.536;9.032;2022-09-12T09:31:37;3.20;;;2.03;;
56712;SDS011;42589;45.536;9.032;2022-09-12T09:34:38;6.57;;;2.35;;
56712;SDS011;42589;45.536;9.032;2022-09-12T09:37:43;7.13;;;2.65;;
56712;SDS011;42589;45.536;9.032;2022-09-12T09:44:03;7.35;;;3.00;;
56712;SDS011;42589;45.536;9.032;2022-09-12T09:47:04;5.80;;;3.30;;
56712;SDS011;42589;45.536;9.032;2022-09-12T09:50:05;8.75;;;3.58;;
56712;SDS011;42589;45.536;9.032;2022-09-12T09:53:08;3.63;;;2.70;;
56712;SDS011;42589;45.536;9.032;2022-09-12T09:56:34;8.02;;;2.90;;
56712;SDS011;42589;45.536;9.032;2022-09-12T09:59:36;4.85;;;2.85;;
56712;SDS011;42589;45.536;9.032;2022-09-12T10:02:40;8.27;;;3.35;;
56712;SDS011;42589;45.536;9.032;2022-09-12T10:05:45;4.75;;;3.30;;
56712;SDS011;42589;45.536;9.032;2022-09-12T10:08:48;4.18;;;2.70;;
56712;SDS011;42589;45.536;9.032;2022-09-12T10:11:50;4.93;;;2.80;;
56712;SDS011;42589;45.536;9.032;2022-09-12T10:14:55;4.68;;;3.33;;
56712;SDS011;42589;45.536;9.032;2022-09-12T10:17:58;6.57;;;3.50;;
56712;SDS011;42589;45.536;9.032;2022-09-12T10:20:59;7.22;;;3.08;;
56712;SDS011;42589;45.536;9.032;2022-09-12T10:30:15;7.68;;;3.42;;
56712;SDS011;42589;45.536;9.032;2022-09-12T10:33:18;5.13;;;2.63;;
56712;SDS011;42589;45.536;9.032;2022-09-12T10:36:19;7.40;;;3.53;;
56712;SDS011;42589;45.536;9.032;2022-09-12T10:39:21;6.07;;;3.33;;
56712;SDS011;42589;45.536;9.032;2022-09-12T10:45:53;4.55;;;3.10;;
56712;SDS011;42589;45.536;9.032;2022-09-12T10:52:24;5.88;;;3.40;;
56712;SDS011;42589;45.536;9.032;2022-09-12T10:55:27;7.70;;;2.35;;
56712;SDS011;42589;45.536;9.032;2022-09-12T10:58:58;4.65;;;2.38;;
56712;SDS011;42589;45.536;9.032;2022-09-12T11:02:11;4.22;;;2.40;;
56712;SDS011;42589;45.536;9.032;2022-09-12T11:05:42;4.60;;;3.63;;
56712;SDS011;42589;45.536;9.032;2022-09-12T11:16:01;6.28;;;3.60;;
56712;SDS011;42589;45.536;9.032;2022-09-12T11:26:15;7.68;;;4.00;;
56712;SDS011;42589;45.536;9.032;2022-09-12T11:29:46;6.70;;;2.58;;
56712;SDS011;42589;45.536;9.032;2022-09-12T11:39:55;6.22;;;2.40;;
56712;SDS011;42589;45.536;9.032;2022-09-12T11:43:06;5.32;;;3.42;;
56712;SDS011;42589;45.536;9.032;2022-09-12T11:46:34;5.88;;;2.53;;
56712;SDS011;42589;45.536;9.032;2022-09-12T11:49:38;4.85;;;2.45;;
56712;SDS011;42589;45.536;9.032;2022-09-12T11:52:49;4.53;;;2.50;;
56712;SDS011;42589;45.536;9.032;2022-09-12T11:55:53;8.20;;;2.70;;
56712;SDS011;42589;45.536;9.032;2022-09-12T11:59:03;5.72;;;2.33;;
56712;SDS011;42589;45.536;9.032;2022-09-12T12:02:13;4.28;;;2.20;;
56712;SDS011;42589;45.536;9.032;2022-09-12T12:08:28;7.47;;;2.90;;
56712;SDS011;42589;45.536;9.032;2022-09-12T12:11:32;8.10;;;2.90;;
56712;SDS011;42589;45.536;9.032;2022-09-12T12:14:43;6.40;;;2.78;;
56712;SDS011;42589;45.536;9.032;2022-09-12T12:18:00;4.55;;;2.40;;
56712;SDS011;42589;45.536;9.032;2022-09-12T12:24:27;7.75;;;2.30;;
56712;SDS011;42589;45.536;9.032;2022-09-12T12:33:54;6.85;;;2.60;;
56712;SDS011;42589;45.536;9.032;2022-09-12T12:40:22;5.20;;;2.85;;
56712;SDS011;42589;45.536;9.032;2022-09-12T12:43:29;4.63;;;2.08;;
56712;SDS011;42589;45.536;9.032;2022-09-12T12:46:31;4.13;;;2.00;;
56712;SDS011;42589;45.536;9.032;2022-09-12T12:49:37;8.90;;;2.30;;
56712;SDS011;42589;45.536;9.032;2022-09-12T12:52:52;3.38;;;1.60;;
56712;SDS011;42589;45.536;9.032;2022-09-12T12:55:58;1.77;;;1.55;;
56712;SDS011;42589;45.536;9.032;2022-09-12T12:59:01;4.70;;;1.80;;
56712;SDS011;42589;45.536;9.032;2022-09-12T13:02:22;8.75;;;1.77;;
56712;SDS011;42589;45.536;9.032;2022-09-12T13:05:37;3.97;;;1.98;;
56712;SDS011;42589;45.536;9.032;2022-09-12T13:08:54;5.32;;;1.90;;
56712;SDS011;42589;45.536;9.032;2022-09-12T13:11:59;3.35;;;1.50;;
56712;SDS011;42589;45.536;9.032;2022-09-12T13:15:28;6.30;;;1.73;;
56712;SDS011;42589;45.536;9.032;2022-09-12T13:18:47;4.53;;;1.83;;
56712;SDS011;42589;45.536;9.032;2022-09-12T13:21:56;5.45;;;2.08;;
56712;SDS011;42589;45.536;9.032;2022-09-12T13:25:00;2.95;;;2.38;;
56712;SDS011;42589;45.536;9.032;2022-09-12T13:34:24;4.45;;;2.00;;
56712;SDS011;42589;45.536;9.032;2022-09-12T13:37:45;4.10;;;1.75;;
56712;SDS011;42589;45.536;9.032;2022-09-12T13:40:59;3.40;;;1.27;;
56712;SDS011;42589;45.536;9.032;2022-09-12T13:44:21;4.18;;;1.65;;
56712;SDS011;42589;45.536;9.032;2022-09-12T13:47:30;2.53;;;1.40;;
56712;SDS011;42589;45.536;9.032;2022-09-12T13:50:38;2.20;;;1.20;;
56712;SDS011;42589;45.536;9.032;2022-09-12T13:53:45;3.88;;;1.23;;
56712;SDS011;42589;45.536;9.032;2022-09-12T13:56:47;3.88;;;1.80;;
56712;SDS011;42589;45.536;9.032;2022-09-12T13:59:49;3.15;;;1.60;;
56712;SDS011;42589;45.536;9.032;2022-09-12T14:02:54;3.78;;;1.50;;
56712;SDS011;42589;45.536;9.032;2022-09-12T14:06:15;4.88;;;1.48;;
56712;SDS011;42589;45.536;9.032;2022-09-12T14:09:22;4.93;;;1.70;;
56712;SDS011;42589;45.536;9.032;2022-09-12T14:15:34;3.38;;;1.70;;
56712;SDS011;42589;45.536;9.032;2022-09-12T14:18:37;4.82;;;1.65;;
56712;SDS011;42589;45.536;9.032;2022-09-12T14:21:41;2.40;;;1.42;;
56712;SDS011;42589;45.536;9.032;2022-09-12T14:24:45;2.53;;;1.40;;
56712;SDS011;42589;45.536;9.032;2022-09-12T14:27:51;2.33;;;1.60;;
56712;SDS011;42589;45.536;9.032;2022-09-12T14:31:05;2.83;;;1.33;;
56712;SDS011;42589;45.536;9.032;2022-09-12T14:34:27;4.15;;;1.30;;
56712;SDS011;42589;45.536;9.032;2022-09-12T14:37:28;2.22;;;1.40;;
56712;SDS011;42589;45.536;9.032;2022-09-12T14:40:29;1.90;;;1.50;;
56712;SDS011;42589;45.536;9.032;2022-09-12T14:43:33;3.38;;;1.35;;
56712;SDS011;42589;45.536;9.032;2022-09-12T14:46:36;2.67;;;1.30;;
56712;SDS011;42589;45.536;9.032;2022-09-12T14:49:39;2.08;;;1.50;;
56712;SDS011;42589;45.536;9.032;2022-09-12T14:52:40;3.15;;;1.52;;
56712;SDS011;42589;45.536;9.032;2022-09-12T14:55:44;7.72;;;1.58;;
56712;SDS011;42589;45.536;9.032;2022-09-12T14:58:48;2.45;;;1.50;;
56712;SDS011;42589;45.536;9.032;2022-09-12T15:01:49;3.70;;;1.60;;
56712;SDS011;42589;45.536;9.032;2022-09-12T15:08:13;2.60;;;1.45;;
56712;SDS011;42589;45.536;9.032;2022-09-12T15:11:14;4.97;;;1.70;;
56712;SDS011;42589;45.536;9.032;2022-09-12T15:14:16;4.07;;;1.58;;
56712;SDS011;42589;45.536;9.032;2022-09-12T15:17:19;3.67;;;1.70;;
56712;SDS011;42589;45.536;9.032;2022-09-12T15:20:21;7.85;;;2.05;;
56712;SDS011;42589;45.536;9.032;2022-09-12T15:26:31;2.88;;;1.60;;
56712;SDS011;42589;45.536;9.032;2022-09-12T15:29:32;5.32;;;1.80;;
56712;SDS011;42589;45.536;9.032;2022-09-12T15:32:33;7.22;;;1.80;;
56712;SDS011;42589;45.536;9.032;2022-09-12T15:35:34;5.40;;;1.77;;
56712;SDS011;42589;45.536;9.032;2022-09-12T15:38:36;5.80;;;1.83;;
56712;SDS011;42589;45.536;9.032;2022-09-12T15:41:37;5.15;;;1.90;;
56712;SDS011;42589;45.536;9.032;2022-09-12T15:44:38;4.75;;;1.92;;
56712;SDS011;42589;45.536;9.032;2022-09-12T15:47:39;3.22;;;1.60;;
56712;SDS011;42589;45.536;9.032;2022-09-12T15:50:40;6.43;;;2.03;;
56712;SDS011;42589;45.536;9.032;2022-09-12T15:53:41;4.90;;;2.40;;
56712;SDS011;42589;45.536;9.032;2022-09-12T15:56:43;3.85;;;1.77;;
56712;SDS011;42589;45.536;9.032;2022-09-12T15:59:44;4.70;;;2.17;;
56712;SDS011;42589;45.536;9.032;2022-09-12T16:02:45;7.03;;;2.30;;
56712;SDS011;42589;45.536;9.032;2022-09-12T16:05:46;3.70;;;1.65;;
56712;SDS011;42589;45.536;9.032;2022-09-12T16:08:48;5.03;;;1.90;;
56712;SDS011;42589;45.536;9.032;2022-09-12T16:11:49;6.25;;;2.00;;
56712;SDS011;42589;45.536;9.032;2022-09-12T16:14:50;5.50;;;1.90;;
56712;SDS011;42589;45.536;9.032;2022-09-12T16:17:52;5.22;;;2.03;;
56712;SDS011;42589;45.536;9.032;2022-09-12T16:20:53;5.32;;;1.70;;
56712;SDS011;42589;45.536;9.032;2022-09-12T16:23:54;3.55;;;1.98;;
56712;SDS011;42589;45.536;9.032;2022-09-12T16:26:55;3.53;;;2.80;;
56712;SDS011;42589;45.536;9.032;2022-09-12T16:29:56;4.35;;;1.60;;
56712;SDS011;42589;45.536;9.032;2022-09-12T16:32:57;4.78;;;1.73;;
56712;SDS011;42589;45.536;9.032;2022-09-12T16:36:02;3.63;;;1.48;;
56712;SDS011;42589;45.536;9.032;2022-09-12T16:39:04;2.72;;;1.65;;
56712;SDS011;42589;45.536;9.032;2022-09-12T16:42:05;4.90;;;1.63;;
56712;SDS011;42589;45.536;9.032;2022-09-12T16:45:06;6.55;;;1.60;;
56712;SDS011;42589;45.536;9.032;2022-09-12T16:48:07;2.20;;;1.50;;
56712;SDS011;42589;45.536;9.032;2022-09-12T16:51:08;2.25;;;1.60;;
56712;SDS011;42589;45.536;9.032;2022-09-12T16:54:10;2.88;;;1.38;;
56712;SDS011;42589;45.536;9.032;2022-09-12T16:57:11;4.22;;;1.45;;
56712;SDS011;42589;45.536;9.032;2022-09-12T17:00:13;10.40;;;1.70;;
56712;SDS011;42589;45.536;9.032;2022-09-12T17:03:14;2.05;;;1.48;;
56712;SDS011;42589;45.536;9.032;2022-09-12T17:06:18;6.03;;;1.60;;
56712;SDS011;42589;45.536;9.032;2022-09-12T17:09:19;4.97;;;1.55;;
56712;SDS011;42589;45.536;9.032;2022-09-12T17:12:20;4.28;;;1.52;;
56712;SDS011;42589;45.536;9.032;2022-09-12T17:15:22;3.03;;;1.25;;
56712;SDS011;42589;45.536;9.032;2022-09-12T17:18:24;4.25;;;1.50;;
56712;SDS011;42589;45.536;9.032;2022-09-12T17:21:25;4.15;;;1.60;;
56712;SDS011;42589;45.536;9.032;2022-09-12T17:24:26;4.63;;;1.60;;
56712;SDS011;42589;45.536;9.032;2022-09-12T17:27:27;4.00;;;1.40;;
56712;SDS011;42589;45.536;9.032;2022-09-12T17:30:28;4.65;;;1.42;;
56712;SDS011;42589;45.536;9.032;2022-09-12T17:33:29;2.72;;;1.48;;
56712;SDS011;42589;45.536;9.032;2022-09-12T17:36:30;4.43;;;1.70;;
56712;SDS011;42589;45.536;9.032;2022-09-12T17:39:30;4.38;;;1.63;;
56712;SDS011;42589;45.536;9.032;2022-09-12T17:42:31;2.67;;;1.52;;
56712;SDS011;42589;45.536;9.032;2022-09-12T17:45:33;3.38;;;1.50;;
56712;SDS011;42589;45.536;9.032;2022-09-12T17:48:34;4.97;;;1.58;;
56712;SDS011;42589;45.536;9.032;2022-09-12T17:51:35;4.10;;;1.85;;
56712;SDS011;42589;45.536;9.032;2022-09-12T17:54:41;2.08;;;1.55;;
56712;SDS011;42589;45.536;9.032;2022-09-12T17:57:42;7.00;;;1.90;;
56712;SDS011;42589;45.536;9.032;2022-09-12T18:00:44;3.67;;;1.73;;
56712;SDS011;42589;45.536;9.032;2022-09-12T18:04:02;6.65;;;1.90;;
56712;SDS011;42589;45.536;9.032;2022-09-12T18:07:03;3.22;;;1.77;;
56712;SDS011;42589;45.536;9.032;2022-09-12T18:10:04;3.05;;;2.00;;
56712;SDS011;42589;45.536;9.032;2022-09-12T18:13:05;3.50;;;1.95;;
56712;SDS011;42589;45.536;9.032;2022-09-12T18:16:07;5.95;;;1.90;;
56712;SDS011;42589;45.536;9.032;2022-09-12T18:19:13;2.75;;;2.20;;
56712;SDS011;42589;45.536;9.032;2022-09-12T18:22:14;5.10;;;2.05;;
56712;SDS011;42589;45.536;9.032;2022-09-12T18:25:15;5.50;;;2.10;;
56712;SDS011;42589;45.536;9.032;2022-09-12T18:28:16;3.25;;;1.90;;
56712;SDS011;42589;45.536;9.032;2022-09-12T18:31:19;3.10;;;2.03;;
56712;SDS011;42589;45.536;9.032;2022-09-12T18:34:22;5.85;;;2.28;;
56712;SDS011;42589;45.536;9.032;2022-09-12T18:37:23;5.47;;;2.00;;
56712;SDS011;42589;45.536;9.032;2022-09-12T18:40:25;5.05;;;2.35;;
56712;SDS011;42589;45.536;9.032;2022-09-12T18:43:27;8.30;;;2.25;;
56712;SDS011;42589;45.536;9.032;2022-09-12T18:46:28;8.68;;;2.72;;
56712;SDS011;42589;45.536;9.032;2022-09-12T18:49:30;5.18;;;3.17;;
56712;SDS011;42589;45.536;9.032;2022-09-12T18:52:31;6.18;;;3.30;;
56712;SDS011;42589;45.536;9.032;2022-09-12T18:58:40;8.73;;;2.70;;
56712;SDS011;42589;45.536;9.032;2022-09-12T19:01:41;5.38;;;2.53;;
56712;SDS011;42589;45.536;9.032;2022-09-12T19:04:42;11.60;;;3.78;;
56712;SDS011;42589;45.536;9.032;2022-09-12T19:07:43;8.90;;;3.00;;
56712;SDS011;42589;45.536;9.032;2022-09-12T19:10:44;7.65;;;3.05;;
56712;SDS011;42589;45.536;9.032;2022-09-12T19:13:54;7.07;;;2.88;;
56712;SDS011;42589;45.536;9.032;2022-09-12T19:16:55;9.02;;;3.00;;
56712;SDS011;42589;45.536;9.032;2022-09-12T19:19:57;10.73;;;2.80;;
56712;SDS011;42589;45.536;9.032;2022-09-12T19:23:01;7.63;;;3.00;;
56712;SDS011;42589;45.536;9.032;2022-09-12T19:26:03;7.25;;;3.30;;
56712;SDS011;42589;45.536;9.032;2022-09-12T19:29:06;8.35;;;3.45;;
56712;SDS011;42589;45.536;9.032;2022-09-12T19:32:07;5.82;;;3.30;;
56712;SDS011;42589;45.536;9.032;2022-09-12T19:35:08;8.27;;;3.42;;
56712;SDS011;42589;45.536;9.032;2022-09-12T19:38:11;5.18;;;3.40;;
56712;SDS011;42589;45.536;9.032;2022-09-12T19:44:17;9.35;;;3.38;;
56712;SDS011;42589;45.536;9.032;2022-09-12T19:47:19;7.20;;;3.80;;
56712;SDS011;42589;45.536;9.032;2022-09-12T19:50:19;8.00;;;3.47;;
56712;SDS011;42589;45.536;9.032;2022-09-12T19:53:20;5.30;;;3.92;;
56712;SDS011;42589;45.536;9.032;2022-09-12T19:56:21;7.65;;;3.78;;
56712;SDS011;42589;45.536;9.032;2022-09-12T19:59:23;10.30;;;4.28;;
56712;SDS011;42589;45.536;9.032;2022-09-12T20:02:24;7.60;;;4.05;;
56712;SDS011;42589;45.536;9.032;2022-09-12T20:05:27;8.15;;;4.20;;
56712;SDS011;42589;45.536;9.032;2022-09-12T20:08:28;8.65;;;4.53;;
56712;SDS011;42589;45.536;9.032;2022-09-12T20:11:29;7.57;;;4.10;;
56712;SDS011;42589;45.536;9.032;2022-09-12T20:14:30;7.90;;;4.65;;
56712;SDS011;42589;45.536;9.032;2022-09-12T20:17:31;5.90;;;4.00;;
56712;SDS011;42589;45.536;9.032;2022-09-12T20:20:32;9.07;;;4.40;;
56712;SDS011;42589;45.536;9.032;2022-09-12T20:23:33;7.78;;;4.25;;
56712;SDS011;42589;45.536;9.032;2022-09-12T20:26:34;7.40;;;4.10;;
56712;SDS011;42589;45.536;9.032;2022-09-12T20:29:35;7.90;;;3.78;;
56712;SDS011;42589;45.536;9.032;2022-09-12T20:32:37;7.80;;;4.35;;
56712;SDS011;42589;45.536;9.032;2022-09-12T20:35:38;8.85;;;4.18;;
56712;SDS011;42589;45.536;9.032;2022-09-12T20:38:39;8.45;;;3.85;;
56712;SDS011;42589;45.536;9.032;2022-09-12T20:41:41;12.52;;;3.92;;
56712;SDS011;42589;45.536;9.032;2022-09-12T20:44:42;9.05;;;4.22;;
56712;SDS011;42589;45.536;9.032;2022-09-12T20:47:43;11.10;;;5.20;;
56712;SDS011;42589;45.536;9.032;2022-09-12T20:50:45;9.25;;;5.03;;
56712;SDS011;42589;45.536;9.032;2022-09-12T20:53:46;13.55;;;5.63;;
56712;SDS011;42589;45.536;9.032;2022-09-12T20:56:47;10.55;;;5.00;;
56712;SDS011;42589;45.536;9.032;2022-09-12T20:59:48;10.13;;;4.75;;